createdAt,value
2023-01-28T00:01:18.850Z,94412.53
2023-01-28T00:03:51.339Z,94430.94
2023-01-28T00:06:20.159Z,94430.84
2023-01-28T00:08:48.479Z,94441.97
2023-01-28T00:11:16.738Z,94440.00
2023-01-28T00:13:46.415Z,94446.88
2023-01-28T00:16:14.706Z,94442.38
2023-01-28T00:18:42.943Z,94449.66
2023-01-28T00:21:16.335Z,94453.88
2023-01-28T00:23:48.771Z,94454.72
2023-01-28T00:26:17.141Z,94454.88
2023-01-28T00:28:47.148Z,94461.22
2023-01-28T00:31:17.886Z,94466.09
2023-01-28T00:33:46.718Z,94452.38
2023-01-28T00:36:16.020Z,94468.59
2023-01-28T00:38:44.591Z,94462.19
2023-01-28T00:41:16.976Z,94481.22
2023-01-28T00:43:46.752Z,94463.84
2023-01-28T00:46:15.460Z,94479.50
2023-01-28T00:48:44.892Z,94479.25
2023-01-28T00:51:15.468Z,94476.84
2023-01-28T00:53:44.162Z,94485.28
2023-01-28T00:56:15.686Z,94464.84
2023-01-28T00:58:44.091Z,94487.78
2023-01-28T01:01:15.365Z,94488.91
2023-01-28T01:03:43.949Z,94490.38
2023-01-28T01:06:13.610Z,94494.22
2023-01-28T01:08:43.272Z,94457.19
2023-01-28T01:11:13.019Z,94480.81
2023-01-28T01:13:41.485Z,94467.13
2023-01-28T01:16:12.838Z,94430.09
2023-01-28T01:18:42.993Z,94481.25
2023-01-28T01:21:13.117Z,94491.22
2023-01-28T01:23:41.700Z,94492.06
2023-01-28T01:26:10.172Z,94495.28
2023-01-28T01:28:39.760Z,94496.44
2023-01-28T01:31:10.006Z,94496.50
2023-01-28T01:33:40.047Z,94406.81
2023-01-28T01:36:12.110Z,94499.00
2023-01-28T01:38:41.139Z,94495.69
2023-01-28T01:41:10.209Z,94495.59
2023-01-28T01:43:52.867Z,94500.25
2023-01-28T01:46:25.386Z,94505.84
2023-01-28T01:48:56.408Z,94503.94
2023-01-28T01:51:31.666Z,94498.53
2023-01-28T01:54:01.953Z,94501.06
2023-01-28T01:56:37.076Z,94500.53
2023-01-28T01:59:06.436Z,94509.97
2023-01-28T02:01:34.681Z,94499.97
2023-01-28T02:04:08.671Z,94518.66
2023-01-28T02:06:39.382Z,94522.66
2023-01-28T02:09:22.854Z,94512.97
2023-01-28T02:11:53.113Z,94519.06
2023-01-28T02:14:30.908Z,94521.22
2023-01-28T02:17:00.076Z,94521.19
2023-01-28T02:19:34.237Z,94516.34
2023-01-28T02:22:23.309Z,94519.41
2023-01-28T02:25:22.429Z,94517.34
2023-01-28T02:28:15.194Z,94516.91
2023-01-28T02:30:51.222Z,94521.75
2023-01-28T02:33:25.537Z,94524.53
2023-01-28T02:35:55.437Z,94522.38
2023-01-28T02:38:29.929Z,94514.53
2023-01-28T02:41:03.955Z,94522.84
2023-01-28T02:43:36.424Z,94504.25
2023-01-28T02:46:32.334Z,94521.84
2023-01-28T02:49:01.164Z,94516.63
2023-01-28T02:51:51.019Z,94512.66
2023-01-28T02:54:29.545Z,94520.44
2023-01-28T02:57:05.666Z,94515.47
2023-01-28T02:59:41.973Z,94516.78
2023-01-28T03:02:17.529Z,94520.38
2023-01-28T03:04:52.201Z,94515.03
2023-01-28T03:07:21.789Z,94527.91
2023-01-28T03:09:51.464Z,94517.00
2023-01-28T03:12:40.412Z,94365.16
2023-01-28T03:15:32.272Z,94525.81
2023-01-28T03:18:22.971Z,94522.84
2023-01-28T03:21:15.543Z,94526.97
2023-01-28T03:24:07.599Z,94505.13
2023-01-28T03:26:57.462Z,94522.38
2023-01-28T03:29:44.412Z,94518.34
2023-01-28T03:32:32.265Z,94510.28
2023-01-28T03:35:17.776Z,94509.78
2023-01-28T03:37:46.324Z,94523.13
2023-01-28T03:40:19.087Z,94518.78
2023-01-28T03:42:47.353Z,94521.19
2023-01-28T03:45:16.304Z,94528.25
2023-01-28T03:47:46.281Z,94516.06
2023-01-28T03:50:14.656Z,94519.50
2023-01-28T03:52:42.886Z,94519.97
2023-01-28T03:55:15.115Z,94525.25
2023-01-28T03:57:45.017Z,94505.06
2023-01-28T04:00:14.593Z,94522.94
2023-01-28T04:02:42.908Z,94531.13
2023-01-28T04:05:15.978Z,94533.25
2023-01-28T04:07:44.676Z,94531.13
2023-01-28T04:10:13.488Z,94537.38
2023-01-28T04:12:42.638Z,94543.00
2023-01-28T04:15:16.925Z,94540.81
2023-01-28T04:17:48.664Z,94537.16
2023-01-28T04:20:19.533Z,94537.28
2023-01-28T04:22:47.786Z,94491.91
2023-01-28T04:25:16.512Z,94530.66
2023-01-28T04:27:45.466Z,94536.28
2023-01-28T04:30:14.008Z,94547.31
2023-01-28T04:32:42.266Z,94547.06
2023-01-28T04:35:11.307Z,94522.44
2023-01-28T04:37:42.455Z,94449.41
2023-01-28T04:40:12.426Z,94554.41
2023-01-28T04:42:41.004Z,94552.97
2023-01-28T04:45:10.280Z,94561.63
2023-01-28T04:47:38.639Z,94561.56
2023-01-28T04:50:10.544Z,94570.00
2023-01-28T04:52:40.355Z,94565.72
2023-01-28T04:55:09.729Z,94546.16
2023-01-28T04:57:38.085Z,94584.63
2023-01-28T05:00:07.437Z,94571.31
2023-01-28T05:02:35.729Z,94584.91
2023-01-28T05:05:06.277Z,94590.44
2023-01-28T05:07:34.540Z,94590.41
2023-01-28T05:10:04.695Z,94587.44
2023-01-28T05:12:34.294Z,94591.38
2023-01-28T05:15:02.755Z,94586.16
2023-01-28T05:17:31.075Z,94589.88
2023-01-28T05:19:59.496Z,94598.97
2023-01-28T05:22:27.777Z,94600.53
2023-01-28T05:24:56.058Z,94597.38
2023-01-28T05:27:25.804Z,94561.84
2023-01-28T05:29:54.012Z,94599.09
2023-01-28T05:32:22.349Z,94607.34
2023-01-28T05:34:50.563Z,94607.03
2023-01-28T05:37:18.987Z,94608.31
2023-01-28T05:39:47.264Z,94611.75
2023-01-28T05:42:16.118Z,94604.94
2023-01-28T05:44:45.914Z,94623.44
2023-01-28T05:47:14.224Z,94618.69
2023-01-28T05:49:42.552Z,94621.59
2023-01-28T05:52:10.753Z,94626.25
2023-01-28T05:54:39.107Z,94627.81
2023-01-28T05:57:07.373Z,94630.19
2023-01-28T05:59:35.642Z,94634.38
2023-01-28T06:02:05.532Z,94635.19
2023-01-28T06:04:33.956Z,94635.91
2023-01-28T06:07:02.273Z,94635.66
2023-01-28T06:09:30.664Z,94648.28
2023-01-28T06:11:59.022Z,94652.81
2023-01-28T06:14:27.409Z,94664.69
2023-01-28T06:16:55.790Z,94635.63
2023-01-28T06:19:25.441Z,94648.16
2023-01-28T06:21:53.689Z,94666.91
2023-01-28T06:24:22.097Z,94654.19
2023-01-28T06:26:50.332Z,94640.88
2023-01-28T06:29:18.688Z,94673.25
2023-01-28T06:31:47.039Z,94673.88
2023-01-28T06:34:15.576Z,94678.19
2023-01-28T06:36:45.397Z,94679.03
2023-01-28T06:39:13.875Z,94680.94
2023-01-28T06:41:42.117Z,94690.16
2023-01-28T06:44:10.413Z,94691.81
2023-01-28T06:46:38.736Z,94691.38
2023-01-28T06:49:06.984Z,94688.34
2023-01-28T06:51:35.437Z,94690.91
2023-01-28T06:54:05.182Z,94707.81
2023-01-28T06:56:33.482Z,94693.72
2023-01-28T06:59:01.879Z,94710.19
2023-01-28T07:01:30.137Z,94708.16
2023-01-28T07:03:58.628Z,94718.00
2023-01-28T07:06:27.002Z,94718.84
2023-01-28T07:08:55.262Z,94719.34
2023-01-28T07:11:24.936Z,94728.72
2023-01-28T07:13:53.175Z,94719.25
2023-01-28T07:16:21.459Z,94727.03
2023-01-28T07:18:49.816Z,94726.41
2023-01-28T07:21:18.220Z,94739.16
2023-01-28T07:23:46.624Z,94742.38
2023-01-28T07:26:15.641Z,94749.69
2023-01-28T07:28:45.355Z,94732.91
2023-01-28T07:31:13.767Z,94752.19
2023-01-28T07:33:42.051Z,94749.91
2023-01-28T07:36:10.480Z,94756.91
2023-01-28T07:38:38.837Z,94757.28
2023-01-28T07:41:07.140Z,94739.63
2023-01-28T07:43:35.505Z,94756.91
2023-01-28T07:46:05.278Z,94760.69
2023-01-28T07:48:33.536Z,94760.00
2023-01-28T07:51:01.947Z,94766.13
2023-01-28T07:53:30.239Z,94735.53
2023-01-28T07:56:05.000Z,94758.75
2023-01-28T07:58:34.712Z,94770.53
2023-01-28T08:01:04.677Z,94769.38
2023-01-28T08:03:32.986Z,94775.19
2023-01-28T08:06:01.173Z,94779.31
2023-01-28T08:08:29.454Z,94777.78
2023-01-28T08:10:57.820Z,94780.44
2023-01-28T08:13:26.052Z,94783.44
2023-01-28T08:15:57.001Z,94793.75
2023-01-28T08:18:26.800Z,94795.31
2023-01-28T08:20:57.234Z,94785.47
2023-01-28T08:23:27.026Z,94797.03
2023-01-28T08:25:55.709Z,94723.94
2023-01-28T08:28:23.985Z,94796.47
2023-01-28T08:30:52.381Z,94802.13
2023-01-28T08:33:21.736Z,94795.09
2023-01-28T08:35:51.471Z,94806.47
2023-01-28T08:38:20.503Z,94806.25
2023-01-28T08:40:50.686Z,94803.19
2023-01-28T08:43:18.988Z,94804.97
2023-01-28T08:45:47.301Z,94814.28
2023-01-28T08:48:18.050Z,94797.78
2023-01-28T08:50:46.691Z,94814.56
2023-01-28T08:56:03.838Z,94819.34
2023-01-28T08:58:32.273Z,94820.19
2023-01-28T09:01:05.043Z,94821.38
2023-01-28T09:03:34.407Z,94818.00
2023-01-28T09:06:03.171Z,94816.81
2023-01-28T09:08:33.425Z,94831.41
2023-01-28T09:11:02.320Z,94826.19
2023-01-28T09:13:31.402Z,94775.94
2023-01-28T09:15:59.731Z,94830.16
2023-01-28T09:18:28.083Z,94829.38
2023-01-28T09:20:56.306Z,94821.72
2023-01-28T09:23:24.668Z,94824.47
2023-01-28T09:26:01.566Z,94821.56
2023-01-28T09:28:30.694Z,94823.03
2023-01-28T09:31:03.681Z,94675.06
2023-01-28T09:33:32.736Z,94747.97
2023-01-28T09:36:02.050Z,94731.50
2023-01-28T09:38:31.868Z,94797.25
2023-01-28T09:41:02.583Z,94823.22
2023-01-28T09:43:49.008Z,94816.94
2023-01-28T09:46:18.709Z,94803.97
2023-01-28T09:48:52.647Z,94816.09
2023-01-28T09:51:33.821Z,94821.47
2023-01-28T09:54:08.654Z,94753.91
2023-01-28T09:56:42.859Z,94815.38
2023-01-28T09:59:19.724Z,94818.63
2023-01-28T10:01:56.005Z,94807.75
2023-01-28T10:04:41.828Z,94805.66
2023-01-28T10:07:22.358Z,94808.03
2023-01-28T10:09:55.626Z,94789.84
2023-01-28T10:12:42.850Z,94811.41
2023-01-28T10:15:28.670Z,94809.59
2023-01-28T10:18:16.017Z,94780.84
2023-01-28T10:20:48.284Z,94800.63
2023-01-28T10:23:23.773Z,94796.69
2023-01-28T10:25:52.110Z,94800.41
2023-01-28T10:28:25.357Z,94793.25
2023-01-28T10:30:53.798Z,94804.34
2023-01-28T10:33:30.113Z,94800.41
2023-01-28T10:35:58.857Z,94809.91
2023-01-28T10:38:29.272Z,94752.34
2023-01-28T10:41:02.015Z,94804.59
2023-01-28T10:43:34.925Z,94732.34
2023-01-28T10:46:09.170Z,94799.88
2023-01-28T10:48:42.787Z,94801.44
2023-01-28T10:51:11.046Z,94809.91
2023-01-28T10:53:44.261Z,94804.34
2023-01-28T10:56:16.002Z,94801.44
2023-01-28T10:59:03.465Z,94812.28
2023-01-28T11:01:46.413Z,94754.44
2023-01-28T11:04:25.965Z,94758.72
2023-01-28T11:06:56.629Z,94792.44
2023-01-28T11:09:27.111Z,94766.38
2023-01-28T11:11:57.924Z,94782.22
2023-01-28T11:14:28.930Z,94803.81
2023-01-28T11:16:59.533Z,94795.09
2023-01-28T11:19:35.279Z,94706.50
2023-01-28T11:22:04.347Z,94783.75
2023-01-28T11:24:35.607Z,94793.28
2023-01-28T11:27:17.928Z,94801.19
2023-01-28T11:29:47.885Z,94799.34
2023-01-28T11:32:20.869Z,94793.78
2023-01-28T11:34:54.688Z,94792.44
2023-01-28T11:37:24.477Z,94732.84
2023-01-28T11:40:20.063Z,94721.53
2023-01-28T11:42:52.123Z,94785.56
2023-01-28T11:45:29.527Z,94799.06
2023-01-28T11:48:13.240Z,94792.22
2023-01-28T11:50:51.911Z,94792.03
2023-01-28T11:53:44.297Z,94737.34
2023-01-28T11:56:37.738Z,94789.44
2023-01-28T11:59:21.317Z,94790.13
2023-01-28T12:02:02.050Z,94781.97
2023-01-28T12:04:50.818Z,94790.81
2023-01-28T12:07:30.664Z,94776.09
2023-01-28T12:10:04.204Z,94776.66
2023-01-28T12:13:07.874Z,94796.09
2023-01-28T12:16:01.694Z,94797.94
2023-01-28T12:18:53.782Z,94793.34
2023-01-28T12:21:35.266Z,94804.72
2023-01-28T12:24:21.647Z,94799.00
2023-01-28T12:26:53.598Z,94796.25
2023-01-28T12:29:32.362Z,94796.97
2023-01-28T12:32:15.408Z,94795.63
2023-01-28T12:35:15.217Z,94802.00
2023-01-28T12:38:00.254Z,94797.50
2023-01-28T12:40:54.827Z,94803.84
2023-01-28T12:43:34.089Z,94801.16
2023-01-28T12:46:07.634Z,94801.78
2023-01-28T12:48:41.047Z,94808.50
2023-01-28T12:51:16.151Z,94802.63
2023-01-28T12:53:52.103Z,94805.22
2023-01-28T12:56:24.935Z,94753.56
2023-01-28T12:58:58.707Z,94805.22
2023-01-28T13:01:31.267Z,94812.84
2023-01-28T13:04:09.368Z,94809.97
2023-01-28T13:06:45.941Z,94819.94
2023-01-28T13:09:19.253Z,94820.16
2023-01-28T13:11:49.582Z,94826.59
2023-01-28T13:14:18.711Z,94819.44
2023-01-28T13:16:47.070Z,94823.00
2023-01-28T13:19:26.491Z,94827.13
2023-01-28T13:21:56.292Z,94826.53
2023-01-28T13:24:33.946Z,94832.91
2023-01-28T13:27:16.386Z,94830.16
2023-01-28T13:29:50.225Z,94790.84
2023-01-28T13:32:34.538Z,94832.50
2023-01-28T13:35:09.246Z,94847.03
2023-01-28T13:37:41.885Z,94846.31
2023-01-28T13:40:25.123Z,94829.94
2023-01-28T13:43:02.760Z,94852.66
2023-01-28T13:45:34.269Z,94850.00
2023-01-28T13:48:28.121Z,94857.91
2023-01-28T13:50:57.652Z,94839.13
2023-01-28T13:53:38.503Z,94863.13
2023-01-28T13:56:18.336Z,94860.03
2023-01-28T13:59:26.828Z,94860.34
2023-01-28T14:02:30.409Z,94870.47
2023-01-28T14:05:37.422Z,94868.50
2023-01-28T14:08:58.505Z,94875.84
2023-01-28T14:11:55.738Z,94886.19
2023-01-28T14:14:58.279Z,94881.16
2023-01-28T14:17:36.613Z,94886.69
2023-01-28T14:20:06.679Z,94883.16
2023-01-28T14:22:35.053Z,94885.22
2023-01-28T14:25:05.278Z,94885.13
2023-01-28T14:27:39.668Z,94888.00
2023-01-28T14:30:17.338Z,94838.94
2023-01-28T14:32:50.846Z,94890.44
2023-01-28T14:35:28.796Z,94881.69
2023-01-28T14:37:59.172Z,94892.28
2023-01-28T14:40:31.668Z,94888.00
2023-01-28T14:43:00.244Z,94897.53
2023-01-28T14:45:49.995Z,94882.22
2023-01-28T14:48:26.304Z,94905.47
2023-01-28T14:51:13.669Z,94906.00
2023-01-28T14:53:58.669Z,94911.53
2023-01-28T14:56:42.679Z,94911.53
2023-01-28T14:59:19.934Z,94899.09
2023-01-28T15:01:50.447Z,94904.38
2023-01-28T15:04:29.672Z,94921.22
2023-01-28T15:07:02.761Z,94921.22
2023-01-28T15:09:31.147Z,94893.78
2023-01-28T15:12:03.124Z,94936.78
2023-01-28T15:14:33.480Z,94933.31
2023-01-28T15:17:05.079Z,94927.22
2023-01-28T15:19:36.141Z,94933.34
2023-01-28T15:22:06.805Z,94937.53
2023-01-28T15:24:37.343Z,94943.00
2023-01-28T15:27:07.093Z,94927.19
2023-01-28T15:29:37.861Z,94945.81
2023-01-28T15:32:07.274Z,94953.34
2023-01-28T15:34:37.237Z,94954.66
2023-01-28T15:37:05.632Z,94962.75
2023-01-28T15:39:35.306Z,94959.72
2023-01-28T15:42:07.435Z,94968.25
2023-01-28T15:44:39.329Z,94967.94
2023-01-28T15:47:17.302Z,94967.72
2023-01-28T15:49:47.875Z,94974.09
2023-01-28T15:52:16.459Z,94982.94
2023-01-28T15:54:48.725Z,94978.69
2023-01-28T15:57:20.903Z,94987.06
2023-01-28T15:59:51.437Z,94996.34
2023-01-28T16:02:24.103Z,94992.19
2023-01-28T16:04:59.524Z,94989.66
2023-01-28T16:07:30.342Z,94997.22
2023-01-28T16:10:01.810Z,95002.63
2023-01-28T16:12:30.390Z,95001.91
2023-01-28T16:15:03.112Z,95012.63
2023-01-28T16:17:36.069Z,94928.31
2023-01-28T16:20:07.417Z,95000.91
2023-01-28T16:22:38.258Z,95024.25
2023-01-28T16:25:26.666Z,95018.16
2023-01-28T16:27:55.014Z,95023.72
2023-01-28T16:30:24.969Z,95019.19
2023-01-28T16:32:55.610Z,95032.97
2023-01-28T16:35:25.374Z,95025.38
2023-01-28T16:37:53.721Z,95040.91
2023-01-28T16:40:24.845Z,95049.72
2023-01-28T16:42:55.658Z,95050.69
2023-01-28T16:45:26.588Z,95024.22
2023-01-28T16:47:55.071Z,95048.63
2023-01-28T16:50:23.453Z,95047.22
2023-01-28T16:52:55.272Z,95045.13
2023-01-28T16:55:24.146Z,95048.13
2023-01-28T16:57:54.794Z,95046.16
2023-01-28T17:00:27.217Z,95040.66
2023-01-28T17:02:56.388Z,95017.06
2023-01-28T17:05:26.971Z,95054.59
2023-01-28T17:07:59.357Z,95053.66
2023-01-28T17:10:27.778Z,94983.41
2023-01-28T17:12:56.005Z,94907.88
2023-01-28T17:15:25.787Z,95064.09
2023-01-28T17:17:55.524Z,95065.97
2023-01-28T17:20:23.780Z,95073.03
2023-01-28T17:22:52.024Z,95076.69
2023-01-28T17:25:21.449Z,95074.13
2023-01-28T17:27:50.431Z,95075.94
2023-01-28T17:30:21.180Z,95079.56
2023-01-28T17:32:50.830Z,95082.78
2023-01-28T17:35:19.404Z,95085.84
2023-01-28T17:37:47.803Z,95096.50
2023-01-28T17:40:16.210Z,95091.19
2023-01-28T17:42:44.565Z,95097.59
2023-01-28T17:45:13.277Z,95098.34
2023-01-28T17:47:41.879Z,95115.31
2023-01-28T17:50:13.073Z,95115.94
2023-01-28T17:52:42.034Z,95103.47
2023-01-28T17:55:12.232Z,95109.78
2023-01-28T17:57:40.632Z,95110.41
2023-01-28T18:00:11.952Z,95120.78
2023-01-28T18:02:40.510Z,95128.75
2023-01-28T18:05:09.477Z,95128.03
2023-01-28T18:07:39.118Z,95137.28
2023-01-28T18:10:08.581Z,95124.69
2023-01-28T18:12:37.007Z,95140.50
2023-01-28T18:15:05.738Z,95142.03
2023-01-28T18:17:34.220Z,95146.94
2023-01-28T18:20:03.929Z,95146.16
2023-01-28T18:22:34.569Z,95142.75
2023-01-28T18:25:04.438Z,95149.63
2023-01-28T18:27:32.790Z,95160.06
2023-01-28T18:30:01.071Z,95162.50
2023-01-28T18:32:29.476Z,95112.75
2023-01-28T18:34:57.777Z,95154.97
2023-01-28T18:37:26.157Z,95151.81
2023-01-28T18:39:54.525Z,95161.00
2023-01-28T18:42:24.197Z,95159.94
2023-01-28T18:44:52.425Z,95158.66
2023-01-28T18:47:20.874Z,95124.66
2023-01-28T18:49:49.213Z,95158.97
2023-01-28T18:52:17.536Z,95168.09
2023-01-28T18:54:45.847Z,95168.09
2023-01-28T18:57:14.191Z,95167.53
2023-01-28T18:59:44.037Z,95156.16
2023-01-28T19:02:15.985Z,95162.66
2023-01-28T19:04:44.282Z,95159.19
2023-01-28T19:07:12.588Z,95169.63
2023-01-28T19:09:40.912Z,95168.00
2023-01-28T19:12:09.331Z,95181.97
2023-01-28T19:14:37.602Z,95180.66
2023-01-28T19:17:07.342Z,95185.97
2023-01-28T19:19:35.637Z,95127.75
2023-01-28T19:22:03.877Z,95173.88
2023-01-28T19:24:35.392Z,95152.66
2023-01-28T19:27:04.024Z,95181.81
2023-01-28T19:29:32.283Z,95187.50
2023-01-28T19:32:00.757Z,95187.06
2023-01-28T19:34:31.081Z,95175.72
2023-01-28T19:36:59.420Z,95180.19
2023-01-28T19:39:27.803Z,95182.63
2023-01-28T19:42:02.159Z,95190.78
2023-01-28T19:44:30.713Z,95192.13
2023-01-28T19:47:00.089Z,95190.50
2023-01-28T19:49:28.389Z,95196.25
2023-01-28T19:51:58.213Z,95202.50
2023-01-28T19:54:29.362Z,95198.53
2023-01-28T19:56:57.667Z,95201.97
2023-01-28T19:59:25.947Z,95200.19
2023-01-28T20:01:54.298Z,95203.72
2023-01-28T20:04:22.659Z,95187.88
2023-01-28T20:06:51.216Z,95196.91
2023-01-28T20:09:21.544Z,95209.28
2023-01-28T20:11:56.485Z,95210.06
2023-01-28T20:14:33.659Z,95205.50
2023-01-28T20:17:02.083Z,95197.75
2023-01-28T20:19:30.418Z,95206.53
2023-01-28T20:21:58.868Z,95153.81
2023-01-28T20:24:28.675Z,95198.28
2023-01-28T20:26:57.018Z,95202.28
2023-01-28T20:29:31.251Z,95208.97
2023-01-28T20:32:15.194Z,95218.41
2023-01-28T20:34:44.696Z,95195.56
2023-01-28T20:37:12.994Z,95224.88
2023-01-28T20:39:42.655Z,95228.16
2023-01-28T20:42:13.425Z,95211.34
2023-01-28T20:44:41.925Z,95223.22
2023-01-28T20:47:10.440Z,95228.72
2023-01-28T20:49:38.758Z,95224.91
2023-01-28T20:52:07.166Z,95238.78
2023-01-28T20:54:35.475Z,95233.66
2023-01-28T20:57:05.243Z,95195.50
2023-01-28T20:59:33.622Z,95237.16
2023-01-28T21:02:01.972Z,95237.66
2023-01-28T21:04:30.296Z,95227.06
2023-01-28T21:06:58.663Z,95251.28
2023-01-28T21:09:28.006Z,95248.78
2023-01-28T21:11:56.250Z,95232.91
2023-01-28T21:14:26.131Z,95251.25
2023-01-28T21:16:54.413Z,95252.31
2023-01-28T21:19:22.995Z,95251.72
2023-01-28T21:21:51.432Z,95253.94
2023-01-28T21:24:19.761Z,95190.31
2023-01-28T21:26:48.170Z,95260.94
2023-01-28T21:29:17.561Z,95267.16
2023-01-28T21:31:47.332Z,95242.81
2023-01-28T21:34:16.109Z,95274.38
2023-01-28T21:36:44.414Z,95270.13
2023-01-28T21:39:12.726Z,95259.97
2023-01-28T21:41:41.348Z,95267.38
2023-01-28T21:44:13.226Z,95267.56
2023-01-28T21:46:41.623Z,95271.88
2023-01-28T21:49:12.704Z,95275.09
2023-01-28T21:51:46.287Z,95274.50
2023-01-28T21:54:16.481Z,95273.41
2023-01-28T21:56:45.983Z,95283.28
2023-01-28T21:59:34.866Z,95233.44
2023-01-28T22:02:05.105Z,95295.53
2023-01-28T22:04:36.885Z,95279.69
2023-01-28T22:07:07.578Z,95283.63
2023-01-28T22:09:36.610Z,95252.78
2023-01-28T22:12:07.093Z,95279.69
2023-01-28T22:14:35.610Z,95244.56
2023-01-28T22:17:04.319Z,95288.88
2023-01-28T22:19:32.655Z,95291.38
2023-01-28T22:22:02.600Z,95279.56
2023-01-28T22:24:30.955Z,95209.19
2023-01-28T22:26:59.793Z,95282.78
2023-01-28T22:29:28.101Z,95285.19
2023-01-28T22:31:56.370Z,95282.75
2023-01-28T22:34:25.076Z,95291.88
2023-01-28T22:36:53.470Z,95290.75
2023-01-28T22:39:23.145Z,95287.03
2023-01-28T22:41:51.359Z,95273.25
2023-01-28T22:44:20.987Z,95289.94
2023-01-28T22:46:49.349Z,95287.72
2023-01-28T22:49:17.681Z,95249.28
2023-01-28T22:51:45.929Z,95286.03
2023-01-28T22:54:15.395Z,95241.31
2023-01-28T22:56:45.092Z,95279.38
2023-01-28T22:59:13.791Z,95249.78
2023-01-28T23:01:42.647Z,95287.72
2023-01-28T23:04:11.002Z,95291.00
2023-01-28T23:06:39.569Z,95286.31
2023-01-28T23:09:07.868Z,95294.28
2023-01-28T23:11:36.114Z,95286.06
2023-01-28T23:14:23.340Z,95312.53
2023-01-28T23:17:09.365Z,95279.78
2023-01-28T23:19:55.578Z,95291.97
2023-01-28T23:22:43.526Z,95216.09
2023-01-28T23:25:12.294Z,95273.84
2023-01-28T23:27:40.535Z,95281.28
2023-01-28T23:30:12.181Z,95268.94
2023-01-28T23:32:43.870Z,95286.66
2023-01-28T23:35:12.580Z,95291.34
2023-01-28T23:37:41.696Z,95290.28
2023-01-28T23:40:10.974Z,95297.72
2023-01-28T23:42:39.305Z,95280.38
2023-01-28T23:45:10.505Z,95292.00
2023-01-28T23:47:38.784Z,95279.00
2023-01-28T23:50:08.763Z,95293.16
2023-01-28T23:52:37.135Z,95289.97
2023-01-28T23:55:06.421Z,95235.81
2023-01-28T23:57:34.935Z,95229.97
